Time;durP1;ratioP1;P1;durP2;ratioP2;P2;SDS_P1;SDS_P2;PMS_P1;PMS_P2;Temp;Humidity;BMP_temperature;BMP_pressure;BME280_temperature;BME280_humidity;BME280_pressure;Samples;Min_cycle;Max_cycle;Signal;HPM_P1;HPM_P2
2021/11/29 00:02:23;;;;;;;21.50;17.27;;;1.90;99.90;;;;;;5041684;28;20216;-61
2021/11/29 00:04:51;;;;;;;22.90;16.63;;;2.00;99.90;;;;;;5051319;28;20189;-59
2021/11/29 00:07:19;;;;;;;24.48;16.58;;;2.00;99.90;;;;;;5046427;28;20225;-59
2021/11/29 00:09:47;;;;;;;19.30;15.25;;;1.90;99.90;;;;;;5032621;28;20192;-58
2021/11/29 00:12:17;;;;;;;27.23;18.38;;;2.00;99.90;;;;;;5032122;28;20232;-59
2021/11/29 00:14:45;;;;;;;27.98;17.60;;;1.90;99.90;;;;;;5032031;28;20220;-58
2021/11/29 00:17:13;;;;;;;21.52;16.90;;;1.90;99.90;;;;;;5032137;28;20228;-59
2021/11/29 00:19:41;;;;;;;21.17;15.30;;;1.90;99.90;;;;;;5032452;28;20614;-61
2021/11/29 00:22:09;;;;;;;19.38;15.57;;;1.90;99.90;;;;;;5032014;28;20271;-60
2021/11/29 00:24:37;;;;;;;27.17;17.52;;;1.90;99.90;;;;;;5031862;28;20185;-58
2021/11/29 00:27:06;;;;;;;27.63;17.38;;;1.70;99.90;;;;;;5029888;28;20266;-58
2021/11/29 00:29:36;;;;;;;28.95;19.30;;;1.80;99.90;;;;;;5031621;28;20259;-61
2021/11/29 00:32:05;;;;;;;23.20;18.10;;;1.70;99.90;;;;;;5030900;28;20642;-61
2021/11/29 00:34:33;;;;;;;23.52;16.27;;;1.70;99.90;;;;;;5031890;28;20251;-58
2021/11/29 00:37:01;;;;;;;26.20;17.85;;;1.80;99.90;;;;;;5032147;28;20224;-58
2021/11/29 00:39:29;;;;;;;28.80;19.20;;;1.70;99.90;;;;;;5032086;28;20606;-61
2021/11/29 00:41:57;;;;;;;28.25;17.40;;;1.70;99.90;;;;;;5031422;28;20244;-60
2021/11/29 00:44:26;;;;;;;21.75;17.05;;;1.80;99.90;;;;;;5032222;28;20216;-57
2021/11/29 00:46:56;;;;;;;25.58;18.00;;;1.80;99.90;;;;;;5031362;28;20217;-58
2021/11/29 00:49:24;;;;;;;25.02;16.13;;;1.80;99.90;;;;;;5032133;28;20567;-60
2021/11/29 00:51:52;;;;;;;24.13;17.30;;;1.70;99.90;;;;;;5031564;28;20224;-60
2021/11/29 00:54:21;;;;;;;25.17;19.00;;;1.80;99.90;;;;;;5031581;28;20296;-57
2021/11/29 00:56:49;;;;;;;24.65;17.08;;;1.70;99.90;;;;;;5034931;28;20999;-58
2021/11/29 00:59:17;;;;;;;22.90;16.45;;;1.70;99.90;;;;;;5033073;28;20205;-59
2021/11/29 01:01:45;;;;;;;21.92;17.98;;;1.70;99.90;;;;;;5031331;28;20624;-60
2021/11/29 01:04:15;;;;;;;24.88;17.17;;;1.70;99.90;;;;;;5031640;28;20186;-59
2021/11/29 01:06:46;;;;;;;27.83;18.90;;;1.70;99.90;;;;;;5030871;28;20691;-58
2021/11/29 01:09:14;;;;;;;23.90;16.83;;;1.60;99.90;;;;;;5031679;28;20197;-59
2021/11/29 01:11:42;;;;;;;29.33;18.60;;;1.60;99.90;;;;;;5031483;28;20229;-60
2021/11/29 01:14:10;;;;;;;26.20;18.27;;;1.60;99.90;;;;;;5030833;28;20259;-59
2021/11/29 01:16:38;;;;;;;28.85;17.58;;;1.60;99.90;;;;;;5031346;28;20225;-58
2021/11/29 01:19:06;;;;;;;26.10;17.08;;;1.50;99.90;;;;;;5031504;28;20473;-61
2021/11/29 01:21:36;;;;;;;26.30;17.40;;;1.50;99.90;;;;;;5031262;28;20232;-61
2021/11/29 01:24:04;;;;;;;25.35;16.50;;;1.50;99.90;;;;;;5031441;28;20181;-60
2021/11/29 01:26:33;;;;;;;24.75;16.33;;;1.40;99.90;;;;;;5031390;28;20262;-59
2021/11/29 01:29:01;;;;;;;23.75;17.13;;;1.40;99.90;;;;;;5031230;28;20220;-59
2021/11/29 01:31:29;;;;;;;23.95;18.27;;;1.50;99.90;;;;;;5031153;28;20197;-59
2021/11/29 01:33:57;;;;;;;27.70;16.60;;;1.60;99.90;;;;;;5031261;28;20240;-59
2021/11/29 01:36:25;;;;;;;23.27;15.95;;;1.50;99.90;;;;;;5029768;28;20729;-58
2021/11/29 01:38:55;;;;;;;27.42;16.75;;;1.40;99.90;;;;;;5031431;28;20213;-60
2021/11/29 01:41:23;;;;;;;27.50;17.55;;;1.40;99.90;;;;;;5030960;28;20194;-61
2021/11/29 01:43:51;;;;;;;27.00;16.52;;;1.30;99.90;;;;;;5030185;28;20204;-61
2021/11/29 01:46:19;;;;;;;24.98;17.45;;;1.30;99.90;;;;;;5030746;28;20193;-58
2021/11/29 01:48:47;;;;;;;28.10;18.63;;;1.30;99.90;;;;;;5031218;28;20217;-59
2021/11/29 01:51:15;;;;;;;29.73;18.80;;;1.30;99.90;;;;;;5031490;28;20602;-61
2021/11/29 01:53:44;;;;;;;28.75;18.08;;;1.30;99.90;;;;;;5030695;28;20247;-61
2021/11/29 01:56:14;;;;;;;30.08;18.33;;;1.20;99.90;;;;;;5031027;28;20193;-58
2021/11/29 01:58:42;;;;;;;23.35;17.08;;;1.20;99.90;;;;;;5030401;28;20586;-58
2021/11/29 02:01:15;;;;;;;25.63;17.80;;;1.30;99.90;;;;;;5031033;28;20213;-59
2021/11/29 02:03:46;;;;;;;27.58;17.60;;;1.30;99.90;;;;;;5031579;28;20312;-60
2021/11/29 02:06:14;;;;;;;23.58;15.68;;;1.30;99.90;;;;;;5050656;28;20213;-58
2021/11/29 02:08:43;;;;;;;17.92;14.27;;;1.40;99.90;;;;;;5035726;28;20263;-58
2021/11/29 02:11:11;;;;;;;22.52;16.00;;;1.40;99.90;;;;;;5034828;28;20189;-60
2021/11/29 02:13:41;;;;;;;25.13;14.57;;;1.50;99.90;;;;;;5034350;28;20213;-59
2021/11/29 02:16:09;;;;;;;19.65;14.02;;;1.50;99.90;;;;;;5034560;28;20683;-57
2021/11/29 02:18:40;;;;;;;25.48;15.52;;;1.50;99.90;;;;;;5034178;28;20263;-57
2021/11/29 02:21:12;;;;;;;30.77;15.63;;;1.40;99.90;;;;;;5034977;28;20272;-61
2021/11/29 02:23:42;;;;;;;21.42;15.23;;;1.30;99.90;;;;;;5034032;28;20279;-59
2021/11/29 02:26:11;;;;;;;22.25;14.68;;;1.20;99.90;;;;;;5034327;28;20190;-58
2021/11/29 02:28:41;;;;;;;18.30;13.75;;;1.20;99.90;;;;;;5033989;28;20220;-58
2021/11/29 02:31:12;;;;;;;20.30;13.40;;;1.20;99.90;;;;;;5034814;28;20562;-59
2021/11/29 02:33:40;;;;;;;19.17;12.63;;;1.30;99.90;;;;;;5033886;28;20605;-60
2021/11/29 02:36:10;;;;;;;16.33;12.80;;;1.30;99.90;;;;;;5034222;28;20225;-58
2021/11/29 02:38:39;;;;;;;16.58;11.35;;;1.20;99.90;;;;;;5033787;28;20240;-58
2021/11/29 02:41:08;;;;;;;18.17;12.13;;;1.30;99.90;;;;;;5034358;28;20713;-60
2021/11/29 02:43:36;;;;;;;14.85;11.05;;;1.30;99.90;;;;;;5044595;28;20636;-60
2021/11/29 02:46:05;;;;;;;17.15;11.90;;;1.40;99.90;;;;;;5054092;28;20191;-58
2021/11/29 02:48:46;;;;;;;14.35;10.80;;;1.50;99.90;;;;;;5053395;28;20221;-58
2021/11/29 02:51:27;;;;;;;15.32;10.93;;;1.40;99.90;;;;;;5050133;28;20247;-60
2021/11/29 02:54:01;;;;;;;13.40;10.80;;;1.30;99.90;;;;;;5033955;28;20622;-58
2021/11/29 02:56:29;;;;;;;15.48;11.63;;;1.30;99.90;;;;;;5035257;28;20221;-57
2021/11/29 02:58:57;;;;;;;17.35;10.98;;;1.20;99.90;;;;;;5037913;28;20591;-57
2021/11/29 03:01:26;;;;;;;16.02;11.10;;;1.20;99.90;;;;;;5032116;28;20189;-60
2021/11/29 03:03:55;;;;;;;15.75;12.27;;;1.20;99.90;;;;;;5033845;28;20197;-60
2021/11/29 03:06:24;;;;;;;16.20;11.35;;;1.30;99.90;;;;;;5033274;28;20754;-59
2021/11/29 03:08:52;;;;;;;14.98;10.13;;;1.30;99.90;;;;;;5034039;28;20217;-59
2021/11/29 03:11:20;;;;;;;17.05;11.18;;;1.20;99.90;;;;;;5033248;28;20315;-59
2021/11/29 03:13:49;;;;;;;12.65;10.90;;;1.40;99.90;;;;;;5033562;28;20197;-60
2021/11/29 03:16:18;;;;;;;11.35;10.18;;;1.30;99.90;;;;;;5033235;28;20209;-57
2021/11/29 03:18:46;;;;;;;15.95;10.27;;;1.20;99.90;;;;;;5031840;28;20695;-58
2021/11/29 03:21:17;;;;;;;13.57;9.65;;;1.20;99.90;;;;;;5032124;28;20655;-60
2021/11/29 03:23:48;;;;;;;12.88;8.70;;;1.30;99.90;;;;;;5033150;28;20764;-60
2021/11/29 03:26:18;;;;;;;10.23;8.95;;;1.40;99.90;;;;;;5033230;28;20235;-58
2021/11/29 03:28:50;;;;;;;18.92;9.88;;;1.40;99.90;;;;;;5033155;28;20283;-58
2021/11/29 03:31:18;;;;;;;11.70;9.18;;;1.40;99.90;;;;;;5033547;28;20247;-61
2021/11/29 03:33:47;;;;;;;11.90;8.90;;;1.50;99.90;;;;;;5033303;28;20652;-60
2021/11/29 03:36:17;;;;;;;11.05;9.23;;;1.60;99.90;;;;;;5033131;28;20237;-58
2021/11/29 03:38:46;;;;;;;11.32;8.65;;;1.60;99.90;;;;;;5032755;28;20217;-58
2021/11/29 03:41:15;;;;;;;11.23;8.60;;;1.70;99.90;;;;;;5033192;28;20208;-60
2021/11/29 03:43:43;;;;;;;10.73;8.45;;;1.60;99.90;;;;;;5032225;28;20275;-60
2021/11/29 03:46:11;;;;;;;10.73;8.27;;;1.70;99.90;;;;;;5033124;28;20582;-58
2021/11/29 03:48:39;;;;;;;10.25;8.60;;;1.70;99.90;;;;;;5032403;28;20312;-58
2021/11/29 03:51:07;;;;;;;15.38;9.02;;;1.70;99.90;;;;;;5033382;28;20655;-61
2021/11/29 03:53:36;;;;;;;12.38;9.13;;;1.70;99.90;;;;;;5032343;28;20642;-60
2021/11/29 03:56:06;;;;;;;15.35;9.30;;;1.70;99.90;;;;;;5032640;28;20241;-57
2021/11/29 03:58:34;;;;;;;11.23;8.40;;;1.60;99.90;;;;;;5038220;28;20595;-59
2021/11/29 04:01:04;;;;;;;11.00;9.90;;;1.70;99.90;;;;;;5050974;28;20219;-61
2021/11/29 04:03:34;;;;;;;10.40;9.30;;;1.70;99.90;;;;;;5051772;28;20216;-60
2021/11/29 04:06:02;;;;;;;14.50;10.60;;;1.70;99.90;;;;;;5063741;28;20221;-58
2021/11/29 04:08:31;;;;;;;13.85;10.88;;;1.60;99.90;;;;;;5057769;28;20220;-57
2021/11/29 04:10:59;;;;;;;14.98;12.00;;;1.60;99.90;;;;;;5052776;28;20185;-59
2021/11/29 04:13:29;;;;;;;13.07;11.65;;;1.60;99.90;;;;;;5039988;28;20271;-59
2021/11/29 04:15:57;;;;;;;15.93;13.15;;;1.70;99.90;;;;;;5032300;28;20197;-59
2021/11/29 04:18:25;;;;;;;20.20;13.27;;;1.70;99.90;;;;;;5032203;28;20723;-57
2021/11/29 04:20:56;;;;;;;18.48;12.15;;;1.70;99.90;;;;;;5032280;28;20243;-60
2021/11/29 04:23:24;;;;;;;17.05;12.30;;;1.70;99.90;;;;;;5032230;28;20583;-60
2021/11/29 04:25:55;;;;;;;17.05;13.88;;;1.70;99.90;;;;;;5032030;28;20193;-57
2021/11/29 04:28:23;;;;;;;17.63;11.85;;;1.70;99.90;;;;;;5031969;28;20229;-58
2021/11/29 04:30:53;;;;;;;20.33;15.95;;;1.80;99.90;;;;;;5032436;28;20207;-60
2021/11/29 04:33:22;;;;;;;19.40;13.48;;;1.70;99.90;;;;;;5031614;28;20231;-60
2021/11/29 04:35:50;;;;;;;19.02;14.27;;;1.80;99.90;;;;;;5032122;28;20248;-59
2021/11/29 04:38:18;;;;;;;18.67;13.77;;;1.80;99.90;;;;;;5031551;28;20225;-58
2021/11/29 04:40:47;;;;;;;19.55;15.55;;;1.70;99.90;;;;;;5032328;28;20193;-61
2021/11/29 04:43:15;;;;;;;19.45;14.88;;;1.70;99.90;;;;;;5031686;28;20220;-59
2021/11/29 04:45:44;;;;;;;26.55;15.10;;;1.70;99.90;;;;;;5031736;28;20612;-58
2021/11/29 04:48:13;;;;;;;17.02;14.40;;;1.70;99.90;;;;;;5031335;28;20256;-57
2021/11/29 04:50:41;;;;;;;17.85;14.93;;;1.60;99.90;;;;;;5032161;28;20548;-59
2021/11/29 04:53:09;;;;;;;22.27;15.75;;;1.60;99.90;;;;;;5031544;28;20272;-60
2021/11/29 04:55:38;;;;;;;19.45;14.70;;;1.60;99.90;;;;;;5049056;28;20677;-61
2021/11/29 04:58:06;;;;;;;21.98;15.00;;;1.50;99.90;;;;;;5036385;28;20232;-59
2021/11/29 05:00:34;;;;;;;19.85;14.52;;;1.60;99.90;;;;;;5031673;28;20193;-60
2021/11/29 05:03:02;;;;;;;18.17;14.52;;;1.60;99.90;;;;;;5031372;28;20306;-60
2021/11/29 05:05:32;;;;;;;18.88;14.27;;;1.60;99.90;;;;;;5031217;28;20224;-60
2021/11/29 05:08:20;;;;;;;17.50;14.43;;;1.60;99.90;;;;;;5031310;28;20229;-58
2021/11/29 05:10:48;;;;;;;19.08;14.95;;;1.60;99.90;;;;;;5031560;28;20208;-60
2021/11/29 05:13:18;;;;;;;17.98;14.32;;;1.50;99.90;;;;;;5031381;28;20694;-60
2021/11/29 05:15:47;;;;;;;19.30;15.55;;;1.50;99.90;;;;;;5031159;28;20193;-59
2021/11/29 05:18:15;;;;;;;20.80;15.25;;;1.40;99.90;;;;;;5031104;28;20275;-58
2021/11/29 05:20:44;;;;;;;19.48;13.40;;;1.40;99.90;;;;;;5031607;28;20185;-60
2021/11/29 05:23:12;;;;;;;18.55;14.00;;;1.40;99.90;;;;;;5031326;28;20251;-59
2021/11/29 05:25:40;;;;;;;18.15;12.65;;;1.50;99.90;;;;;;5031399;28;20836;-60
2021/11/29 05:28:09;;;;;;;18.45;14.63;;;1.50;99.90;;;;;;5031223;28;20255;-58
2021/11/29 05:30:37;;;;;;;21.48;14.60;;;1.50;99.90;;;;;;5031594;28;20618;-62
2021/11/29 05:33:05;;;;;;;25.52;16.05;;;1.40;99.90;;;;;;5031054;28;20279;-59
2021/11/29 05:35:33;;;;;;;22.95;15.75;;;1.40;99.90;;;;;;5029914;28;20193;-59
2021/11/29 05:38:03;;;;;;;24.30;16.85;;;1.40;99.90;;;;;;5030497;28;20275;-58
2021/11/29 05:40:32;;;;;;;22.02;15.13;;;1.40;99.90;;;;;;5031476;28;20220;-58
2021/11/29 05:43:00;;;;;;;24.98;16.27;;;1.40;99.90;;;;;;5032522;28;20221;-60
2021/11/29 05:45:28;;;;;;;29.58;18.17;;;1.30;99.90;;;;;;5035146;28;20709;-60
2021/11/29 05:47:57;;;;;;;26.05;16.63;;;1.30;99.90;;;;;;5034498;28;20255;-58
2021/11/29 05:50:25;;;;;;;28.08;17.27;;;1.30;99.90;;;;;;5035235;28;20198;-58
2021/11/29 05:52:53;;;;;;;25.27;14.30;;;1.30;99.90;;;;;;5034533;28;20259;-60
2021/11/29 05:55:22;;;;;;;21.67;14.65;;;1.40;99.90;;;;;;5035065;28;20251;-60
2021/11/29 05:57:50;;;;;;;22.77;13.85;;;1.40;99.90;;;;;;5040247;28;20674;-57
2021/11/29 06:00:20;;;;;;;24.27;13.88;;;1.40;99.90;;;;;;5035194;28;20251;-58
2021/11/29 06:02:48;;;;;;;20.80;13.70;;;1.40;99.90;;;;;;5034334;28;20236;-60
2021/11/29 06:05:18;;;;;;;24.88;14.93;;;1.40;99.90;;;;;;5034791;28;20198;-60
2021/11/29 06:07:46;;;;;;;26.65;15.88;;;1.40;99.90;;;;;;5034615;28;20255;-57
2021/11/29 06:10:14;;;;;;;26.55;13.98;;;1.40;99.90;;;;;;5053934;28;20654;-58
2021/11/29 06:12:45;;;;;;;29.92;15.00;;;1.50;99.90;;;;;;5052555;28;20613;-60
2021/11/29 06:15:14;;;;;;;27.95;13.93;;;1.50;99.90;;;;;;5054397;28;20196;-61
2021/11/29 06:17:43;;;;;;;27.77;14.90;;;1.50;99.90;;;;;;5054030;28;20228;-59
2021/11/29 06:20:19;;;;;;;34.95;15.75;;;1.50;99.90;;;;;;5050585;28;20197;-58
2021/11/29 06:22:48;;;;;;;25.27;13.50;;;1.50;99.90;;;;;;5034366;28;20220;-60
2021/11/29 06:25:16;;;;;;;24.58;12.43;;;1.60;99.90;;;;;;5034367;28;20201;-60
2021/11/29 06:27:46;;;;;;;21.80;11.82;;;1.60;99.90;;;;;;5034116;28;20571;-58
2021/11/29 06:30:15;;;;;;;24.15;13.77;;;1.70;99.90;;;;;;5034679;28;20196;-57
2021/11/29 06:32:43;;;;;;;23.33;13.95;;;1.70;99.90;;;;;;5032840;28;20244;-59
2021/11/29 06:35:13;;;;;;;28.52;14.57;;;1.60;99.90;;;;;;5034261;28;20224;-59
2021/11/29 06:37:42;;;;;;;23.75;13.68;;;1.60;99.90;;;;;;5033713;28;20221;-57
2021/11/29 06:40:11;;;;;;;21.45;12.95;;;1.70;99.90;;;;;;5034606;28;20599;-58
2021/11/29 06:42:39;;;;;;;24.67;13.20;;;1.70;99.90;;;;;;5033359;28;20289;-60
2021/11/29 06:45:09;;;;;;;23.67;12.02;;;1.60;99.90;;;;;;5034023;28;20186;-60
2021/11/29 06:47:41;;;;;;;25.65;12.15;;;1.60;99.90;;;;;;5064036;28;20219;-59
2021/11/29 06:50:09;;;;;;;21.38;12.25;;;1.60;99.90;;;;;;5051331;28;20193;-58
2021/11/29 06:52:38;;;;;;;24.70;13.55;;;1.60;99.90;;;;;;5042907;28;20713;-59
2021/11/29 06:55:07;;;;;;;21.00;12.15;;;1.60;99.90;;;;;;5052089;28;20212;-60
2021/11/29 06:57:35;;;;;;;18.48;11.40;;;1.70;99.90;;;;;;5048107;28;20245;-58
2021/11/29 07:00:05;;;;;;;20.10;12.52;;;1.60;99.90;;;;;;5034102;28;20607;-58
2021/11/29 07:02:35;;;;;;;21.25;11.95;;;1.60;99.90;;;;;;5031763;28;20651;-58
2021/11/29 07:05:04;;;;;;;21.27;11.68;;;1.60;99.90;;;;;;5043664;28;20196;-59
2021/11/29 07:07:32;;;;;;;20.83;11.93;;;1.60;99.90;;;;;;5031831;28;20223;-59
2021/11/29 07:10:01;;;;;;;19.67;11.68;;;1.60;99.90;;;;;;5033632;28;20678;-59
2021/11/29 07:12:29;;;;;;;20.30;12.73;;;1.50;99.90;;;;;;5033241;28;20774;-59
2021/11/29 07:14:57;;;;;;;21.25;13.20;;;1.50;99.90;;;;;;5033409;28;20696;-59
2021/11/29 07:17:25;;;;;;;20.50;13.40;;;1.50;99.90;;;;;;5032967;28;20737;-58
2021/11/29 07:19:55;;;;;;;23.83;13.77;;;1.50;99.90;;;;;;5033263;28;20189;-58
2021/11/29 07:22:24;;;;;;;23.00;14.60;;;1.60;99.90;;;;;;5052539;28;20555;-58
2021/11/29 07:24:53;;;;;;;28.20;12.15;;;1.60;99.90;;;;;;5053115;28;20192;-58
2021/11/29 07:27:25;;;;;;;23.10;13.73;;;1.60;99.90;;;;;;5049628;28;20702;-58
2021/11/29 07:29:54;;;;;;;22.90;13.23;;;1.60;99.90;;;;;;5031927;28;20288;-58
2021/11/29 07:32:23;;;;;;;21.38;13.65;;;1.60;99.90;;;;;;5032854;28;20274;-58
2021/11/29 07:34:51;;;;;;;24.52;16.27;;;1.70;99.90;;;;;;5033109;28;20548;-59
2021/11/29 07:37:21;;;;;;;21.90;14.13;;;1.70;99.90;;;;;;5032743;28;20641;-58
2021/11/29 07:39:51;;;;;;;19.70;12.48;;;1.70;99.90;;;;;;5033123;28;20563;-58
2021/11/29 07:42:20;;;;;;;24.85;13.32;;;1.70;99.90;;;;;;5046341;28;20220;-58
2021/11/29 07:44:48;;;;;;;21.00;13.23;;;1.80;99.90;;;;;;5031687;28;20279;-59
2021/11/29 07:47:16;;;;;;;18.17;12.35;;;1.70;99.90;;;;;;5032593;28;20355;-58
2021/11/29 07:49:45;;;;;;;26.38;13.45;;;1.80;99.90;;;;;;5043964;28;20197;-58
2021/11/29 07:52:14;;;;;;;22.45;13.75;;;1.80;99.90;;;;;;5045027;28;20782;-58
2021/11/29 07:54:44;;;;;;;22.17;13.55;;;1.80;99.90;;;;;;5032508;28;20197;-59
2021/11/29 07:57:15;;;;;;;21.58;12.82;;;1.90;99.90;;;;;;5047518;28;20773;-58
2021/11/29 07:59:43;;;;;;;18.98;14.82;;;1.90;99.90;;;;;;5033034;28;20193;-58
2021/11/29 08:02:19;;;;;;;22.55;14.02;;;1.90;99.90;;;;;;5051167;28;20220;-58
2021/11/29 08:04:47;;;;;;;25.23;15.65;;;1.90;99.90;;;;;;5050324;28;20199;-60
2021/11/29 08:07:17;;;;;;;22.63;14.15;;;1.90;99.90;;;;;;5031540;28;20245;-59
2021/11/29 08:09:48;;;;;;;18.13;12.38;;;1.80;99.90;;;;;;5032716;28;20239;-59
2021/11/29 08:12:16;;;;;;;22.35;12.30;;;1.90;99.90;;;;;;5031856;28;20213;-58
2021/11/29 08:14:44;;;;;;;21.48;12.25;;;1.80;99.90;;;;;;5032361;28;20193;-59
2021/11/29 08:17:13;;;;;;;25.17;12.70;;;1.90;99.90;;;;;;5031953;28;20275;-58
2021/11/29 08:19:41;;;;;;;21.52;11.63;;;1.90;99.90;;;;;;5032274;28;20221;-58
2021/11/29 08:22:09;;;;;;;16.38;9.98;;;1.90;99.90;;;;;;5038165;28;20216;-59
2021/11/29 08:24:38;;;;;;;15.15;10.35;;;2.00;99.90;;;;;;5052018;28;20604;-60
2021/11/29 08:27:08;;;;;;;16.95;10.30;;;2.00;99.90;;;;;;5050604;28;20235;-59
2021/11/29 08:29:36;;;;;;;19.15;9.70;;;2.10;99.90;;;;;;5032327;28;20204;-58
2021/11/29 08:32:05;;;;;;;19.27;11.05;;;2.10;99.90;;;;;;5044718;28;20614;-58
2021/11/29 08:34:37;;;;;;;14.38;9.35;;;2.20;99.90;;;;;;5053787;28;20204;-59
2021/11/29 08:37:06;;;;;;;16.55;9.00;;;2.20;99.90;;;;;;5031684;28;20220;-58
2021/11/29 08:39:35;;;;;;;17.45;11.63;;;2.30;99.90;;;;;;5042454;28;20674;-58
2021/11/29 08:42:04;;;;;;;16.27;10.73;;;2.30;99.90;;;;;;5050615;28;20633;-58
2021/11/29 08:44:34;;;;;;;15.77;10.77;;;2.20;99.90;;;;;;5076067;28;20202;-59
2021/11/29 08:47:02;;;;;;;20.63;13.77;;;2.30;99.90;;;;;;5050737;28;20224;-60
2021/11/29 08:49:31;;;;;;;19.35;10.85;;;2.40;99.90;;;;;;5051812;28;20192;-58
2021/11/29 08:52:00;;;;;;;16.55;10.60;;;2.40;99.90;;;;;;5045905;28;20217;-58
2021/11/29 08:54:30;;;;;;;16.38;11.32;;;2.30;99.90;;;;;;5061481;28;20605;-59
2021/11/29 08:56:58;;;;;;;13.52;9.63;;;2.40;99.90;;;;;;5051246;28;20639;-59
2021/11/29 08:59:26;;;;;;;16.40;9.68;;;2.50;99.90;;;;;;5050349;28;20213;-58
2021/11/29 09:01:56;;;;;;;13.80;8.27;;;2.60;99.90;;;;;;5051200;28;20302;-57
2021/11/29 09:04:24;;;;;;;11.95;8.10;;;2.70;99.90;;;;;;5051562;28;20193;-59
2021/11/29 09:06:53;;;;;;;16.65;11.73;;;2.70;99.90;;;;;;5044454;28;20248;-59
2021/11/29 09:09:21;;;;;;;15.32;8.52;;;2.70;99.90;;;;;;5031639;28;20713;-58
2021/11/29 09:11:50;;;;;;;15.45;10.27;;;2.70;99.90;;;;;;5040934;28;20220;-59
2021/11/29 09:14:18;;;;;;;18.15;10.38;;;2.70;99.90;;;;;;5032307;28;20563;-59
2021/11/29 09:16:46;;;;;;;13.77;9.65;;;2.80;99.90;;;;;;5030728;28;20224;-59
2021/11/29 09:19:15;;;;;;;14.27;10.57;;;2.80;99.90;;;;;;5031506;28;20583;-58
2021/11/29 09:21:44;;;;;;;18.50;11.38;;;2.90;99.90;;;;;;5030717;28;20216;-58
2021/11/29 09:24:12;;;;;;;15.13;10.38;;;2.90;99.90;;;;;;5031197;28;20651;-58
2021/11/29 09:26:40;;;;;;;13.13;10.68;;;2.90;99.90;;;;;;5030851;28;20279;-59
2021/11/29 09:29:10;;;;;;;16.13;11.95;;;3.00;99.90;;;;;;5031315;28;20241;-57
2021/11/29 09:31:38;;;;;;;18.20;11.90;;;3.10;99.90;;;;;;5030978;28;20193;-58
2021/11/29 09:34:06;;;;;;;13.73;10.20;;;3.20;99.90;;;;;;5031300;28;20201;-58
2021/11/29 09:36:36;;;;;;;17.95;10.40;;;3.20;99.90;;;;;;5039342;28;20248;-59
2021/11/29 09:39:07;;;;;;;16.25;10.85;;;3.30;99.90;;;;;;5033818;28;20219;-58
2021/11/29 09:41:36;;;;;;;15.75;9.98;;;3.20;99.90;;;;;;5050395;28;20185;-59
2021/11/29 09:44:05;;;;;;;21.50;9.50;;;3.20;99.90;;;;;;5045980;28;20216;-59
2021/11/29 09:46:33;;;;;;;16.58;9.88;;;3.30;99.90;;;;;;5030971;28;20240;-59
2021/11/29 09:49:03;;;;;;;14.18;10.77;;;3.30;99.90;;;;;;5046890;28;20211;-59
2021/11/29 09:51:33;;;;;;;18.10;11.68;;;3.30;99.90;;;;;;5050569;28;20610;-58
2021/11/29 09:54:05;;;;;;;11.95;9.27;;;3.30;99.90;;;;;;5030941;28;20205;-59
2021/11/29 09:56:33;;;;;;;13.20;8.73;;;3.40;99.90;;;;;;5030851;28;20652;-59
2021/11/29 09:59:01;;;;;;;13.75;10.02;;;3.50;99.90;;;;;;5046921;28;20209;-58
2021/11/29 10:01:30;;;;;;;11.02;8.25;;;3.50;99.90;;;;;;5050705;28;20196;-58
2021/11/29 10:04:03;;;;;;;9.30;7.65;;;3.50;99.90;;;;;;5049440;28;20188;-59
2021/11/29 10:06:32;;;;;;;14.65;7.32;;;3.50;99.90;;;;;;5047798;28;20238;-59
2021/11/29 10:09:04;;;;;;;12.00;7.43;;;3.50;99.90;;;;;;5039909;28;20581;-59
2021/11/29 10:11:32;;;;;;;13.38;7.45;;;3.40;99.90;;;;;;5050576;28;20201;-58
2021/11/29 10:14:05;;;;;;;12.48;8.63;;;3.40;99.90;;;;;;5050253;28;20643;-58
2021/11/29 10:16:36;;;;;;;10.70;7.05;;;3.40;99.90;;;;;;5038127;28;20193;-59
2021/11/29 10:19:07;;;;;;;9.32;6.40;;;3.40;99.90;;;;;;5030899;28;20691;-58
2021/11/29 10:21:35;;;;;;;9.20;7.35;;;3.40;99.90;;;;;;5029598;28;20197;-58
2021/11/29 10:24:13;;;;;;;11.88;7.72;;;3.40;99.90;;;;;;5030634;28;20291;-58
2021/11/29 10:26:42;;;;;;;12.45;7.65;;;3.30;99.90;;;;;;5030645;28;20272;-59
2021/11/29 10:29:15;;;;;;;14.40;6.80;;;3.30;99.90;;;;;;5032702;28;20282;-58
2021/11/29 10:31:46;;;;;;;13.02;7.45;;;3.30;99.90;;;;;;5037669;28;20224;-58
2021/11/29 10:34:16;;;;;;;16.40;8.60;;;3.40;99.90;;;;;;5053183;28;20254;-60
2021/11/29 10:36:47;;;;;;;8.65;6.28;;;3.40;99.90;;;;;;5052386;28;20231;-59
2021/11/29 10:39:19;;;;;;;9.75;7.10;;;3.40;99.90;;;;;;5034423;28;20213;-58
2021/11/29 10:41:50;;;;;;;13.00;9.35;;;3.30;99.90;;;;;;5034182;28;20286;-59
2021/11/29 10:44:21;;;;;;;14.25;7.63;;;3.10;99.90;;;;;;5034574;28;20193;-58
2021/11/29 10:46:52;;;;;;;10.38;6.75;;;3.10;99.90;;;;;;5033890;28;20221;-60
2021/11/29 10:49:24;;;;;;;9.40;6.75;;;3.10;99.90;;;;;;5034316;28;20190;-59
2021/11/29 10:51:53;;;;;;;9.23;7.35;;;3.10;99.90;;;;;;5033475;28;20225;-58
2021/11/29 10:54:25;;;;;;;10.13;7.10;;;3.10;99.90;;;;;;5033029;28;20251;-57
2021/11/29 10:56:56;;;;;;;8.82;6.50;;;3.10;99.90;;;;;;5033659;28;20252;-60
2021/11/29 10:59:26;;;;;;;10.82;7.65;;;3.10;99.90;;;;;;5034465;28;20219;-58
2021/11/29 11:01:56;;;;;;;12.68;7.90;;;3.10;99.90;;;;;;5033515;28;20217;-58
2021/11/29 11:04:26;;;;;;;9.80;6.93;;;3.00;99.90;;;;;;5032339;28;20814;-58
2021/11/29 11:06:56;;;;;;;10.75;7.88;;;3.00;99.90;;;;;;5048725;28;20249;-60
2021/11/29 11:09:29;;;;;;;13.05;8.00;;;2.90;99.90;;;;;;5042426;28;20205;-57
2021/11/29 11:12:00;;;;;;;9.68;7.95;;;2.90;99.90;;;;;;5049050;28;20224;-58
2021/11/29 11:14:31;;;;;;;10.82;7.60;;;2.90;99.90;;;;;;5052056;28;20195;-61
2021/11/29 11:17:20;;;;;;;14.52;8.60;;;3.00;99.90;;;;;;5056492;28;20590;-60
2021/11/29 11:19:49;;;;;;;14.20;9.38;;;3.00;99.90;;;;;;5051959;28;20251;-59
2021/11/29 11:22:22;;;;;;;11.38;7.65;;;2.90;99.90;;;;;;5038932;28;20220;-58
2021/11/29 11:24:54;;;;;;;14.15;10.30;;;3.00;99.90;;;;;;5033683;28;20193;-60
2021/11/29 11:27:27;;;;;;;14.88;7.70;;;3.00;99.90;;;;;;5031701;28;21232;-60
2021/11/29 11:29:56;;;;;;;12.93;8.38;;;3.00;99.90;;;;;;5033632;28;20235;-59
2021/11/29 11:32:31;;;;;;;10.50;7.53;;;3.10;99.90;;;;;;5031929;28;20221;-59
2021/11/29 11:35:02;;;;;;;7.03;6.25;;;3.10;99.90;;;;;;5033637;28;20195;-60
2021/11/29 11:37:37;;;;;;;10.00;7.85;;;3.20;99.90;;;;;;5052723;28;20244;-58
2021/11/29 11:40:10;;;;;;;13.05;6.88;;;3.10;99.90;;;;;;5052326;28;20563;-58
2021/11/29 11:42:38;;;;;;;12.10;6.25;;;3.10;99.90;;;;;;5047620;28;20224;-58
2021/11/29 11:45:09;;;;;;;9.05;6.60;;;3.10;99.90;;;;;;5032937;28;20192;-59
2021/11/29 11:47:38;;;;;;;11.15;7.93;;;3.10;99.90;;;;;;5032658;28;20229;-61
2021/11/29 11:50:09;;;;;;;12.88;8.02;;;3.10;99.90;;;;;;5032765;28;20189;-58
2021/11/29 11:52:37;;;;;;;10.85;7.22;;;3.10;99.90;;;;;;5031185;28;20703;-58
2021/11/29 11:55:08;;;;;;;12.15;8.05;;;3.20;99.90;;;;;;5046181;28;20254;-60
2021/11/29 11:57:57;;;;;;;11.65;8.63;;;3.30;99.90;;;;;;5057763;28;20281;-59
2021/11/29 12:00:30;;;;;;;10.10;8.40;;;3.20;99.90;;;;;;5060332;28;20213;-58
2021/11/29 12:03:16;;;;;;;11.15;8.80;;;3.30;99.90;;;;;;5032128;28;20252;-58
2021/11/29 12:05:54;;;;;;;13.05;8.35;;;3.20;99.90;;;;;;5035241;28;20208;-60
2021/11/29 12:08:35;;;;;;;12.05;8.63;;;3.30;99.90;;;;;;5032457;28;20718;-59
2021/11/29 12:11:26;;;;;;;11.90;7.97;;;3.20;99.90;;;;;;5033087;28;20190;-59
2021/11/29 12:14:04;;;;;;;10.02;8.38;;;3.30;99.90;;;;;;5032367;28;20220;-59
2021/11/29 12:16:34;;;;;;;9.07;7.13;;;3.30;99.90;;;;;;5032021;28;20540;-59
2021/11/29 12:19:04;;;;;;;13.18;8.10;;;3.40;99.90;;;;;;5051604;28;20571;-59
2021/11/29 12:21:38;;;;;;;10.02;8.35;;;3.30;99.90;;;;;;5040473;28;20201;-57
2021/11/29 12:24:12;;;;;;;9.43;7.88;;;3.40;99.90;;;;;;5032003;28;20189;-57
2021/11/29 12:27:02;;;;;;;11.90;7.80;;;3.40;99.90;;;;;;5032073;28;20189;-59
2021/11/29 12:29:51;;;;;;;13.70;7.63;;;3.40;99.90;;;;;;5051855;28;20258;-57
2021/11/29 12:32:23;;;;;;;8.80;7.75;;;3.30;99.90;;;;;;5051667;28;20216;-58
2021/11/29 12:35:04;;;;;;;15.27;10.27;;;3.30;99.90;;;;;;5050661;28;20200;-58
2021/11/29 12:37:39;;;;;;;11.75;8.80;;;3.30;99.90;;;;;;5031728;28;20238;-59
2021/11/29 12:40:10;;;;;;;14.63;9.45;;;3.30;99.90;;;;;;5030749;28;20292;-59
2021/11/29 12:43:00;;;;;;;11.68;7.60;;;3.40;99.90;;;;;;5036547;28;20221;-58
2021/11/29 12:45:31;;;;;;;14.38;8.70;;;3.40;99.90;;;;;;5014065;28;20193;-60
2021/11/29 12:48:04;;;;;;;13.35;9.50;;;3.40;99.90;;;;;;5031540;28;20248;-60
2021/11/29 12:50:40;;;;;;;11.70;9.30;;;3.40;99.90;;;;;;5032227;28;20189;-59
2021/11/29 12:53:14;;;;;;;14.93;10.20;;;3.40;99.90;;;;;;5029120;28;20248;-58
2021/11/29 12:55:49;;;;;;;12.20;10.70;;;3.40;99.90;;;;;;5059633;28;20205;-60